Time;durP1;ratioP1;P1;durP2;ratioP2;P2;SDS_P1;SDS_P2;PMS_P1;PMS_P2;Temp;Humidity;BMP_temperature;BMP_pressure;BME280_temperature;BME280_humidity;BME280_pressure;Samples;Min_cycle;Max_cycle;Signal;HPM_P1;HPM_P2
2024/04/09 00:00:19;;;;;;;11.10;3.25;;;;;;;23.13;30.10;93014.66;6209658;23;20925;-89
2024/04/09 00:02:46;;;;;;;13.05;3.58;;;;;;;23.16;30.29;93008.75;6210173;23;20180;-89
2024/04/09 00:05:15;;;;;;;12.02;3.50;;;;;;;23.20;30.17;93014.94;6211230;23;20209;-89
2024/04/09 00:07:43;;;;;;;14.75;3.55;;;;;;;23.20;30.27;93009.66;6210490;23;20193;-89
2024/04/09 00:10:13;;;;;;;9.13;3.58;;;;;;;23.17;30.22;93010.31;6210898;23;20661;-88
2024/04/09 00:12:39;;;;;;;14.25;3.45;;;;;;;23.17;30.44;93010.31;6210920;23;20212;-89
2024/04/09 00:15:09;;;;;;;11.50;3.42;;;;;;;23.14;30.54;93009.09;6211138;23;20158;-89
2024/04/09 00:17:39;;;;;;;11.38;3.92;;;;;;;23.09;30.43;93011.91;6210519;23;20200;-89
2024/04/09 00:20:09;;;;;;;14.02;3.47;;;;;;;23.02;30.02;93001.91;6211428;23;20197;-89
2024/04/09 00:22:36;;;;;;;12.32;3.70;;;;;;;23.04;30.44;93006.84;6210288;23;20166;-88
2024/04/09 00:25:01;;;;;;;13.18;4.20;;;;;;;22.99;30.38;92994.66;6211101;23;20181;-89
2024/04/09 00:27:29;;;;;;;14.00;3.58;;;;;;;23.00;30.65;92998.03;6210477;23;20757;-89
2024/04/09 00:29:55;;;;;;;15.73;3.75;;;;;;;22.95;30.68;92993.75;6210648;23;20528;-88
2024/04/09 00:32:24;;;;;;;15.18;4.22;;;;;;;22.97;30.51;93001.31;6210417;23;20228;-89
2024/04/09 00:34:49;;;;;;;9.18;3.20;;;;;;;22.94;30.76;92994.81;6210973;23;20179;-89
2024/04/09 00:37:16;;;;;;;17.35;3.42;;;;;;;22.94;30.81;92992.19;6209900;23;20180;-88
2024/04/09 00:39:41;;;;;;;10.93;3.40;;;;;;;22.93;30.77;93001.16;6210619;23;20224;-89
2024/04/09 00:42:09;;;;;;;11.15;3.30;;;;;;;22.94;30.86;93000.06;6210767;23;20174;-89
2024/04/09 00:44:37;;;;;;;13.60;3.80;;;;;;;22.94;30.60;93015.81;6209747;23;20522;-89
2024/04/09 00:47:06;;;;;;;17.30;3.92;;;;;;;22.89;30.64;93010.78;6210929;23;20174;-89
2024/04/09 00:49:32;;;;;;;14.65;3.47;;;;;;;22.92;30.76;93011.97;6210587;23;20216;-88
2024/04/09 00:51:59;;;;;;;12.70;3.95;;;;;;;22.89;30.62;92995.03;6210435;23;20564;-88
2024/04/09 00:54:25;;;;;;;12.65;3.65;;;;;;;22.85;30.55;92985.47;6210920;23;20781;-89
2024/04/09 00:56:53;;;;;;;18.58;3.55;;;;;;;22.81;31.06;92987.94;6210728;23;20232;-88
2024/04/09 00:59:21;;;;;;;14.85;4.22;;;;;;;22.78;30.72;92985.19;6210283;23;20212;-89
2024/04/09 01:01:52;;;;;;;16.02;4.32;;;;;;;22.73;30.36;92983.47;6210178;23;20166;-89
2024/04/09 01:04:18;;;;;;;17.98;3.90;;;;;;;22.68;30.64;92967.94;6210348;23;20241;-89
2024/04/09 01:06:47;;;;;;;13.77;3.50;;;;;;;22.59;30.35;92972.44;6210305;23;20185;-89
2024/04/09 01:11:49;;;;;;;15.57;4.00;;;;;;;22.58;30.78;92992.63;6149780;23;20201;-89
2024/04/09 01:14:17;;;;;;;17.52;3.85;;;;;;;22.56;30.61;92986.16;6150138;23;20185;-90
2024/04/09 01:16:52;;;;;;;12.98;3.70;;;;;;;22.49;30.50;92980.66;6149882;23;20575;-89
2024/04/09 01:19:18;;;;;;;16.67;3.67;;;;;;;22.50;30.99;93003.94;6155874;23;20214;-89
2024/04/09 01:21:45;;;;;;;16.38;3.53;;;;;;;22.48;30.89;93013.19;6179491;23;20185;-89
2024/04/09 01:24:12;;;;;;;14.75;3.88;;;;;;;22.48;30.92;93007.97;6180463;23;20273;-89
2024/04/09 01:26:40;;;;;;;16.83;3.80;;;;;;;22.46;31.23;93020.59;6180500;23;20166;-89
2024/04/09 01:29:11;;;;;;;15.02;4.07;;;;;;;22.48;30.94;93032.31;6179946;23;20503;-89
2024/04/09 01:31:38;;;;;;;14.50;4.38;;;;;;;22.51;31.16;93036.19;6180740;23;20224;-89
2024/04/09 01:34:04;;;;;;;23.25;4.53;;;;;;;22.49;31.44;93052.22;6180678;23;20225;-89
2024/04/09 01:36:34;;;;;;;13.35;3.58;;;;;;;22.47;31.65;93072.75;6179104;23;20170;-89
2024/04/09 01:38:59;;;;;;;16.75;3.83;;;;;;;22.43;31.98;93073.66;6180205;23;20182;-89
2024/04/09 01:41:28;;;;;;;11.05;3.55;;;;;;;22.40;32.07;93102.03;6180279;23;20181;-89
2024/04/09 01:43:54;;;;;;;11.80;3.80;;;;;;;22.28;31.71;93067.84;6178840;23;20198;-89
2024/04/09 01:46:21;;;;;;;17.92;4.10;;;;;;;22.28;31.66;93073.06;6180217;23;20178;-89
2024/04/09 01:48:49;;;;;;;16.50;4.32;;;;;;;22.28;31.91;93080.94;6180604;23;20281;-89
2024/04/09 01:51:19;;;;;;;13.30;3.75;;;;;;;22.17;31.77;93079.69;6179806;23;20685;-90
2024/04/09 01:53:48;;;;;;;18.10;3.63;;;;;;;22.16;32.24;93093.88;6180060;23;20257;-89
2024/04/09 01:56:15;;;;;;;14.15;3.80;;;;;;;22.13;32.10;93099.75;6180055;23;20180;-89
2024/04/09 01:58:42;;;;;;;14.50;3.92;;;;;;;22.10;32.33;93096.97;6180084;23;20170;-89
2024/04/09 02:01:10;;;;;;;14.32;4.00;;;;;;;22.09;32.44;93105.94;6180610;23;20217;-89
2024/04/09 02:03:38;;;;;;;16.73;4.13;;;;;;;22.06;32.25;93104.69;6180298;23;20519;-89
2024/04/09 02:06:05;;;;;;;14.68;3.63;;;;;;;22.08;32.55;93107.00;6180083;23;20174;-89
2024/04/09 02:08:31;;;;;;;11.95;4.15;;;;;;;22.01;32.71;93107.44;6179421;23;20261;-89
2024/04/09 02:10:58;;;;;;;12.35;4.10;;;;;;;22.05;32.40;93103.16;6180003;23;20222;-89
2024/04/09 02:13:31;;;;;;;15.15;4.43;;;;;;;21.99;32.53;93101.72;6179981;23;20214;-89
2024/04/09 02:16:12;;;;;;;14.07;3.80;;;;;;;21.99;32.59;93106.97;6180392;23;20197;-89
2024/04/09 02:18:45;;;;;;;15.73;3.80;;;;;;;21.89;33.01;93134.25;6180210;23;20582;-89
2024/04/09 02:21:15;;;;;;;13.85;3.70;;;;;;;21.93;32.97;93116.84;6180616;23;20507;-89
2024/04/09 02:23:42;;;;;;;13.50;3.70;;;;;;;21.90;32.91;93114.06;6179701;23;20503;-89
2024/04/09 02:26:09;;;;;;;16.85;4.22;;;;;;;21.79;33.11;93118.03;6179869;23;20174;-89
2024/04/09 02:28:37;;;;;;;13.25;3.92;;;;;;;21.76;33.35;93131.72;6179609;23;20201;-89
2024/04/09 02:31:04;;;;;;;17.25;4.38;;;;;;;21.74;33.23;93121.59;6179813;23;20190;-88
2024/04/09 02:33:32;;;;;;;12.57;4.00;;;;;;;21.73;33.43;93121.88;6180586;23;20257;-89
2024/04/09 02:35:58;;;;;;;16.80;4.70;;;;;;;21.69;33.54;93130.34;6179907;23;20178;-89
2024/04/09 02:38:27;;;;;;;15.93;4.72;;;;;;;21.74;33.34;93137.31;6180163;23;20504;-89
2024/04/09 02:40:53;;;;;;;20.77;4.45;;;;;;;21.71;33.35;93132.66;6179222;23;20198;-89
2024/04/09 02:43:20;;;;;;;12.63;4.20;;;;;;;21.74;33.35;93137.31;6180807;23;20201;-89
2024/04/09 02:45:45;;;;;;;13.43;4.28;;;;;;;21.71;33.37;93130.81;6181461;23;20170;-89
2024/04/09 02:48:15;;;;;;;11.63;4.25;;;;;;;21.78;33.42;93137.44;6181803;23;20272;-89
2024/04/09 02:50:40;;;;;;;15.85;4.32;;;;;;;21.85;33.14;93138.53;6181847;23;20198;-89
2024/04/09 02:53:07;;;;;;;15.82;3.90;;;;;;;21.89;33.09;93131.63;6181633;23;20266;-89
2024/04/09 02:55:33;;;;;;;13.25;4.10;;;;;;;21.92;33.16;93132.88;6181418;23;20194;-89
2024/04/09 02:57:59;;;;;;;16.27;3.92;;;;;;;21.96;33.20;93134.53;6181910;23;20181;-89
2024/04/09 03:00:31;;;;;;;14.88;4.32;;;;;;;22.01;33.29;93144.91;6181568;23;20198;-89
2024/04/09 03:02:58;;;;;;;11.98;3.78;;;;;;;22.10;33.22;93157.25;6182110;23;20598;-88
2024/04/09 03:05:42;;;;;;;16.42;4.45;;;;;;;22.10;32.90;93152.03;6181681;23;20185;-89
2024/04/09 03:08:10;;;;;;;12.65;3.65;;;;;;;22.14;33.24;93166.03;6180349;23;20771;-89
2024/04/09 03:10:37;;;;;;;15.85;4.05;;;;;;;22.13;33.37;93161.91;6181441;23;20197;-89
2024/04/09 03:13:05;;;;;;;15.70;3.75;;;;;;;22.10;33.51;93152.78;6181837;23;20197;-89
2024/04/09 03:15:35;;;;;;;16.45;4.70;;;;;;;22.15;33.56;93165.72;6181953;23;20198;-89
2024/04/09 03:18:00;;;;;;;17.63;4.22;;;;;;;22.19;33.08;93160.66;6182625;23;20489;-89
2024/04/09 03:20:27;;;;;;;14.80;4.13;;;;;;;22.22;33.18;93160.81;6181301;23;20198;-89
2024/04/09 03:22:54;;;;;;;16.77;4.13;;;;;;;22.21;33.27;93161.09;6182364;23;20179;-89
2024/04/09 03:25:20;;;;;;;18.45;4.53;;;;;;;22.23;33.32;93169.44;6181499;23;20179;-89
2024/04/09 03:27:51;;;;;;;15.35;4.50;;;;;;;22.25;33.44;93175.91;6181353;23;20201;-88
2024/04/09 03:30:17;;;;;;;14.50;4.10;;;;;;;22.21;33.94;93208.28;6180834;23;20193;-88
2024/04/09 03:32:43;;;;;;;15.10;4.10;;;;;;;22.18;33.80;93187.94;6181821;23;20201;-89
2024/04/09 03:35:12;;;;;;;16.88;3.88;;;;;;;22.16;33.96;93198.72;6181523;23;20681;-89
2024/04/09 03:37:39;;;;;;;19.27;4.45;;;;;;;22.13;33.98;93190.72;6181561;23;20225;-89
2024/04/09 03:40:10;;;;;;;14.73;4.75;;;;;;;22.02;33.82;93179.75;6181519;23;20198;-89
2024/04/09 03:42:37;;;;;;;13.15;4.00;;;;;;;21.99;33.49;93165.38;6180084;23;20619;-89
2024/04/09 03:45:05;;;;;;;12.18;4.10;;;;;;;21.95;33.26;93151.34;6181136;23;20185;-89
2024/04/09 03:47:32;;;;;;;16.70;4.80;;;;;;;21.98;33.24;93155.19;6180983;23;20205;-88
2024/04/09 03:49:57;;;;;;;9.10;3.97;;;;;;;22.03;33.13;93149.84;6181008;23;20245;-89
2024/04/09 03:52:24;;;;;;;12.73;4.03;;;;;;;22.12;33.01;93145.41;6181544;23;20205;-88
2024/04/09 03:54:49;;;;;;;16.40;4.50;;;;;;;22.04;32.82;93133.81;6181832;23;20181;-90
2024/04/09 03:57:17;;;;;;;13.82;4.07;;;;;;;22.04;32.70;93122.56;6181447;23;20654;-89
2024/04/09 03:59:43;;;;;;;16.42;3.80;;;;;;;22.13;32.73;93130.44;6183009;23;20198;-89
2024/04/09 04:02:10;;;;;;;13.77;3.60;;;;;;;22.15;32.66;93126.41;6181291;23;20257;-89
2024/04/09 04:04:35;;;;;;;20.98;4.45;;;;;;;22.14;32.67;93135.34;6181298;23;20225;-89
2024/04/09 04:07:03;;;;;;;18.42;4.18;;;;;;;22.16;32.46;93124.56;6181412;23;20174;-89
2024/04/09 04:09:30;;;;;;;15.43;4.00;;;;;;;22.25;32.52;93120.09;6181428;23;20208;-90
2024/04/09 04:12:00;;;;;;;14.05;3.63;;;;;;;22.29;32.42;93129.66;6180713;23;20189;-89
2024/04/09 04:14:27;;;;;;;16.77;3.97;;;;;;;22.32;32.59;93123.78;6181331;23;20208;-89
2024/04/09 04:16:58;;;;;;;15.70;4.45;;;;;;;22.29;32.28;93115.78;6180578;23;20171;-89
2024/04/09 04:19:23;;;;;;;19.67;4.07;;;;;;;22.27;32.32;93123.19;6179986;23;20258;-90
2024/04/09 04:21:52;;;;;;;12.15;4.35;;;;;;;22.30;32.41;93117.34;6180539;23;20174;-88
2024/04/09 04:24:18;;;;;;;13.77;3.90;;;;;;;22.29;32.24;93115.78;6179482;23;20208;-89
2024/04/09 04:26:44;;;;;;;19.52;4.80;;;;;;;22.34;32.53;93132.13;6179337;23;20626;-89
2024/04/09 04:29:10;;;;;;;18.27;4.50;;;;;;;22.33;32.77;93133.19;6180493;23;20222;-88
2024/04/09 04:31:39;;;;;;;17.80;3.80;;;;;;;22.34;32.43;93129.50;6180653;23;20518;-90
2024/04/09 04:34:04;;;;;;;19.05;4.15;;;;;;;22.33;32.65;93125.31;6179507;23;20843;-88
2024/04/09 04:36:31;;;;;;;16.33;4.60;;;;;;;22.36;32.56;93132.56;6179980;23;20253;-88
2024/04/09 04:38:59;;;;;;;17.40;4.00;;;;;;;22.34;32.77;93132.13;6180707;23;20202;-90
2024/04/09 04:41:25;;;;;;;18.42;4.20;;;;;;;22.32;32.27;93115.91;6180306;23;20170;-90
2024/04/09 04:43:55;;;;;;;17.92;4.03;;;;;;;22.33;32.11;93096.50;6180396;23;20236;-91
2024/04/09 04:46:22;;;;;;;14.27;4.07;;;;;;;22.31;32.08;93093.44;6180439;23;20173;-90
2024/04/09 04:48:58;;;;;;;16.38;4.22;;;;;;;22.28;32.24;93095.91;6180957;23;20221;-92
2024/04/09 04:51:28;;;;;;;14.60;3.75;;;;;;;22.28;32.08;93093.28;6181753;23;20545;-89
2024/04/09 04:53:53;;;;;;;10.55;3.47;;;;;;;22.32;32.11;93102.06;6179531;23;20697;-90
2024/04/09 04:56:20;;;;;;;17.88;4.53;;;;;;;22.28;32.13;93088.03;6180124;23;20208;-90
2024/04/09 04:58:45;;;;;;;14.18;3.95;;;;;;;22.28;32.12;93106.38;6180351;23;20670;-90
2024/04/09 05:01:12;;;;;;;17.45;3.80;;;;;;;22.20;31.87;93110.53;6180872;23;20205;-90
2024/04/09 05:03:37;;;;;;;13.40;4.25;;;;;;;22.31;32.34;93119.66;6180119;23;20180;-89
2024/04/09 05:06:07;;;;;;;15.57;3.75;;;;;;;22.36;32.30;93116.84;6180678;23;20178;-90
2024/04/09 05:08:35;;;;;;;10.77;4.22;;;;;;;22.40;32.26;93111.75;6180806;23;20282;-90
2024/04/09 05:11:12;;;;;;;17.65;3.55;;;;;;;22.44;32.24;93123.19;6180390;23;20206;-90
2024/04/09 05:13:37;;;;;;;13.68;3.92;;;;;;;22.40;32.25;93115.16;6180080;23;20174;-90
2024/04/09 05:16:04;;;;;;;15.05;3.72;;;;;;;22.43;32.14;93126.88;6180000;23;20492;-89
2024/04/09 05:18:30;;;;;;;15.63;3.90;;;;;;;22.40;32.49;93128.25;6180269;23;20661;-88
2024/04/09 05:21:00;;;;;;;14.98;4.28;;;;;;;22.42;32.45;93130.56;6180515;23;20247;-89
2024/04/09 05:23:30;;;;;;;12.27;3.42;;;;;;;22.37;32.34;93128.09;6179597;23;20162;-89
2024/04/09 05:25:56;;;;;;;12.93;3.63;;;;;;;22.35;32.06;93125.03;6180783;23;20179;-88
2024/04/09 05:28:22;;;;;;;12.68;4.03;;;;;;;22.45;32.33;93135.22;6180898;23;20589;-88
2024/04/09 05:30:51;;;;;;;11.48;3.60;;;;;;;22.45;32.29;93135.22;6181107;23;20221;-88
2024/04/09 05:33:17;;;;;;;21.52;4.32;;;;;;;22.51;32.33;93135.81;6181683;23;20178;-89
2024/04/09 05:35:46;;;;;;;13.60;4.03;;;;;;;22.51;32.12;93128.72;6181638;23;20668;-90
2024/04/09 05:38:11;;;;;;;15.85;4.07;;;;;;;22.57;31.98;93130.09;6179391;23;20189;-90
2024/04/09 05:40:39;;;;;;;13.77;4.07;;;;;;;22.73;32.20;93149.50;6180381;23;20674;-89
2024/04/09 05:43:05;;;;;;;8.43;3.15;;;;;;;22.76;32.08;93140.25;6179351;23;20174;-89
2024/04/09 05:45:31;;;;;;;14.23;3.95;;;;;;;22.86;32.29;93153.09;6180226;23;20257;-89
2024/04/09 05:47:57;;;;;;;11.93;3.45;;;;;;;22.85;31.80;93135.03;6180026;23;20510;-90
2024/04/09 05:50:23;;;;;;;13.23;4.32;;;;;;;22.94;32.00;93141.00;6180485;23;20202;-89
2024/04/09 05:52:49;;;;;;;13.38;4.05;;;;;;;22.94;32.13;93154.13;6179799;23;20182;-88
2024/04/09 05:55:15;;;;;;;13.45;4.60;;;;;;;22.98;32.22;93165.53;6179313;23;20177;-90
2024/04/09 05:57:42;;;;;;;14.18;3.90;;;;;;;23.07;32.06;93179.44;6180016;23;20180;-88
2024/04/09 06:00:11;;;;;;;14.98;4.03;;;;;;;23.08;32.00;93179.13;6179945;23;20194;-89
2024/04/09 06:02:36;;;;;;;14.85;4.50;;;;;;;23.14;32.31;93182.31;6180010;23;20174;-89
2024/04/09 06:05:03;;;;;;;16.73;3.88;;;;;;;23.08;31.98;93179.13;6179923;23;20244;-89
2024/04/09 06:07:30;;;;;;;11.38;4.20;;;;;;;23.02;31.88;93169.88;6179270;23;20622;-89
2024/04/09 06:09:57;;;;;;;10.10;3.90;;;;;;;23.01;31.75;93191.16;6180279;23;20228;-89
2024/04/09 06:12:22;;;;;;;20.02;4.40;;;;;;;23.13;32.30;93216.75;6179583;23;20194;-89
2024/04/09 06:14:53;;;;;;;15.80;3.92;;;;;;;23.21;32.86;93274.50;6180172;23;20632;-89
2024/04/09 06:17:19;;;;;;;12.90;3.65;;;;;;;23.14;33.88;93349.56;6181596;23;20851;-89
2024/04/09 06:19:44;;;;;;;17.40;4.95;;;;;;;22.98;36.03;93455.00;6182205;23;20225;-88
2024/04/09 06:22:11;;;;;;;19.63;4.10;;;;;;;22.89;36.02;93493.59;6182296;23;20487;-89
2024/04/09 06:24:36;;;;;;;15.15;4.22;;;;;;;22.73;36.66;93522.03;6181821;23;20220;-88
2024/04/09 06:27:03;;;;;;;15.82;4.00;;;;;;;22.61;36.85;93511.34;6181200;23;20182;-89
2024/04/09 06:29:30;;;;;;;12.90;4.22;;;;;;;22.60;36.58;93511.66;6181922;23;20206;-89
2024/04/09 06:31:57;;;;;;;21.35;4.97;;;;;;;22.59;36.63;93510.88;6181712;23;20200;-88
2024/04/09 06:34:23;;;;;;;17.88;5.18;;;;;;;22.58;37.52;93558.38;6181997;23;20200;-89
2024/04/09 06:36:49;;;;;;;18.58;4.72;;;;;;;22.55;37.87;93559.75;6182009;23;20179;-88
2024/04/09 06:39:15;;;;;;;13.05;4.40;;;;;;;22.60;36.85;93512.41;6181314;23;20181;-90
2024/04/09 06:41:41;;;;;;;15.43;4.22;;;;;;;22.62;36.66;93501.63;6181812;23;20173;-89
2024/04/09 06:44:06;;;;;;;22.65;4.35;;;;;;;22.62;36.71;93499.00;6179960;23;20186;-90
2024/04/09 06:46:33;;;;;;;15.23;4.22;;;;;;;22.64;36.36;93505.50;6181275;23;20179;-89
2024/04/09 06:49:00;;;;;;;16.08;3.97;;;;;;;22.64;36.30;93491.59;6181503;23;20570;-89
2024/04/09 06:51:26;;;;;;;16.40;4.75;;;;;;;22.59;36.57;93494.34;6181948;23;20706;-88
2024/04/09 06:53:51;;;;;;;18.63;5.18;;;;;;;22.60;36.61;93503.78;6180923;23;20182;-88
2024/04/09 06:56:36;;;;;;;16.23;4.30;;;;;;;22.58;36.73;93503.31;6181755;23;20181;-88
2024/04/09 06:59:02;;;;;;;15.98;4.32;;;;;;;22.58;36.42;93492.81;6166705;23;20252;-88
2024/04/09 07:01:28;;;;;;;16.60;4.30;;;;;;;22.58;35.86;93469.97;6182279;23;20209;-90
2024/04/09 07:03:59;;;;;;;19.60;4.13;;;;;;;22.53;36.03;93462.22;6181618;23;20261;-89
2024/04/09 07:06:37;;;;;;;17.48;4.47;;;;;;;22.51;35.65;93455.78;6181120;23;20229;-89
2024/04/09 07:09:05;;;;;;;17.17;4.00;;;;;;;22.50;35.58;93455.00;6180905;23;20572;-89
2024/04/09 07:11:31;;;;;;;15.90;4.25;;;;;;;22.46;35.86;93461.91;6181164;23;20182;-89
2024/04/09 07:14:03;;;;;;;16.02;4.25;;;;;;;22.45;35.93;93473.47;6181018;23;20701;-89
2024/04/09 07:16:32;;;;;;;17.40;3.83;;;;;;;22.47;35.84;93486.28;6180212;23;20159;-89
2024/04/09 07:18:57;;;;;;;16.38;4.10;;;;;;;22.49;35.89;93492.78;6181148;23;20170;-89
2024/04/09 07:21:28;;;;;;;15.95;3.85;;;;;;;22.50;36.06;93494.34;6180790;23;20992;-89
2024/04/09 07:23:55;;;;;;;13.48;4.50;;;;;;;22.46;36.09;93497.84;6181026;23;20170;-89
2024/04/09 07:26:23;;;;;;;16.98;4.10;;;;;;;22.48;36.34;93527.94;6180980;23;20174;-89
2024/04/09 07:28:51;;;;;;;16.08;4.38;;;;;;;22.48;36.46;93543.69;6180914;23;20504;-88
2024/04/09 07:31:18;;;;;;;16.77;4.80;;;;;;;22.44;37.20;93561.09;6180815;23;20244;-89
2024/04/09 07:33:49;;;;;;;19.50;4.20;;;;;;;22.42;36.70;93551.97;6180977;23;20178;-89
2024/04/09 07:36:20;;;;;;;14.95;4.05;;;;;;;22.35;37.17;93565.50;6181413;23;20672;-89
2024/04/09 07:38:49;;;;;;;24.50;4.75;;;;;;;22.34;37.00;93548.22;6180906;23;20209;-89
2024/04/09 07:41:17;;;;;;;15.70;3.95;;;;;;;22.34;36.76;93556.06;6180357;23;20193;-89
2024/04/09 07:43:47;;;;;;;12.82;3.95;;;;;;;22.37;36.87;93550.25;6179637;23;20186;-89
2024/04/09 07:46:17;;;;;;;17.00;4.15;;;;;;;22.34;36.42;93533.25;6180539;23;20228;-88
2024/04/09 07:48:43;;;;;;;16.58;3.67;;;;;;;22.35;36.01;93518.28;6179650;23;20194;-89
2024/04/09 07:51:11;;;;;;;16.92;4.03;;;;;;;22.31;35.55;93505.03;6180535;23;20193;-89
2024/04/09 07:53:43;;;;;;;10.95;3.75;;;;;;;22.34;35.35;93485.28;6180487;23;20170;-89
2024/04/09 07:56:13;;;;;;;14.32;4.82;;;;;;;22.38;35.56;93497.50;6181226;23;20174;-88
2024/04/09 07:58:39;;;;;;;13.68;3.67;;;;;;;22.44;35.53;93492.13;6180929;23;20168;-89
2024/04/09 08:01:11;;;;;;;10.77;4.20;;;;;;;22.49;35.33;93484.91;6180519;23;20269;-90
2024/04/09 08:03:37;;;;;;;19.40;4.47;;;;;;;22.48;34.96;93467.63;6180374;23;20154;-89
2024/04/09 08:06:04;;;;;;;15.55;4.03;;;;;;;22.40;34.46;93440.28;6180658;23;20174;-89
2024/04/09 08:08:30;;;;;;;12.85;3.92;;;;;;;22.39;34.24;93443.97;6180933;23;20766;-89
2024/04/09 08:10:56;;;;;;;19.77;4.15;;;;;;;22.31;34.11;93421.13;6181066;23;20206;-89
2024/04/09 08:13:23;;;;;;;17.50;3.70;;;;;;;22.33;33.68;93412.94;6181079;23;20175;-89
2024/04/09 08:15:52;;;;;;;13.63;3.38;;;;;;;22.29;33.94;93425.91;6180510;23;20209;-90
2024/04/09 08:18:17;;;;;;;16.88;3.67;;;;;;;22.31;34.51;93483.28;6181153;23;20182;-88
2024/04/09 08:20:44;;;;;;;11.32;3.35;;;;;;;22.23;34.76;93471.66;6180121;23;20203;-89
2024/04/09 08:23:10;;;;;;;17.30;3.47;;;;;;;22.35;34.27;93481.59;6180620;23;20174;-88
2024/04/09 08:25:37;;;;;;;17.63;3.53;;;;;;;22.27;34.40;93487.56;6180233;23;20174;-89
2024/04/09 08:28:03;;;;;;;12.60;3.67;;;;;;;22.35;34.27;93499.94;6180912;23;20258;-89
2024/04/09 08:30:31;;;;;;;14.98;3.33;;;;;;;22.39;34.28;93516.63;6180236;23;20610;-89
2024/04/09 08:32:57;;;;;;;10.38;3.83;;;;;;;22.39;34.50;93533.13;6181020;23;20269;-89
2024/04/09 08:35:23;;;;;;;12.25;3.38;;;;;;;22.47;34.61;93544.00;6180399;23;20212;-89
2024/04/09 08:37:48;;;;;;;15.10;3.55;;;;;;;22.54;34.95;93560.06;6180209;23;20181;-88
2024/04/09 08:40:22;;;;;;;12.98;3.65;;;;;;;22.57;35.42;93607.44;6180172;23;20190;-89
2024/04/09 08:42:50;;;;;;;14.32;4.03;;;;;;;22.59;34.86;93580.91;6179893;23;20241;-89
2024/04/09 08:45:19;;;;;;;17.58;3.75;;;;;;;22.57;35.30;93593.56;6180597;23;20180;-89
2024/04/09 08:47:48;;;;;;;19.38;3.92;;;;;;;22.56;35.59;93605.91;6180794;23;20305;-89
2024/04/09 08:50:14;;;;;;;16.40;4.32;;;;;;;22.55;35.12;93591.22;6181044;23;20205;-88
2024/04/09 08:52:40;;;;;;;20.83;4.32;;;;;;;22.58;35.44;93593.25;6179488;23;20190;-89
2024/04/09 08:55:08;;;;;;;12.85;4.07;;;;;;;22.62;35.11;93588.97;6178381;23;20178;-89
2024/04/09 08:57:33;;;;;;;17.83;4.20;;;;;;;22.68;35.33;93615.84;6178078;23;20650;-89
2024/04/09 09:00:00;;;;;;;15.13;4.30;;;;;;;22.59;35.60;93628.13;6177919;23;20198;-89
2024/04/09 09:02:26;;;;;;;16.77;3.85;;;;;;;22.63;36.31;93668.44;6178424;23;20174;-89
2024/04/09 09:04:54;;;;;;;18.30;3.97;;;;;;;22.64;36.11;93652.41;6179847;23;20196;-89
2024/04/09 09:07:20;;;;;;;15.85;4.18;;;;;;;22.56;36.22;93647.09;6180016;23;20182;-88
2024/04/09 09:09:48;;;;;;;12.75;3.97;;;;;;;22.54;36.85;93707.72;6178923;23;20202;-89
2024/04/09 09:12:15;;;;;;;14.32;3.90;;;;;;;22.61;36.67;93697.59;6180471;23;20159;-89
2024/04/09 09:14:49;;;;;;;18.05;4.03;;;;;;;22.63;36.76;93713.03;6179424;23;20234;-89
2024/04/09 09:17:15;;;;;;;17.58;3.63;;;;;;;22.48;37.00;93721.25;6179681;23;20165;-89
2024/04/09 09:19:55;;;;;;;17.60;4.05;;;;;;;22.61;37.39;93755.31;6178256;23;20449;-89
2024/04/09 09:22:22;;;;;;;20.60;4.93;;;;;;;22.62;38.02;93782.31;6177523;23;20173;-89
2024/04/09 09:24:57;;;;;;;16.13;3.92;;;;;;;22.70;38.12;93768.50;6177927;23;20178;-89
2024/04/09 09:27:22;;;;;;;11.82;3.58;;;;;;;22.72;37.90;93788.09;6177746;23;20193;-89
2024/04/09 09:29:58;;;;;;;13.82;3.95;;;;;;;22.84;37.56;93781.59;6178057;23;20351;-89
2024/04/09 09:32:26;;;;;;;14.98;4.30;;;;;;;22.91;37.88;93792.44;6178181;23;20225;-89
2024/04/09 09:34:55;;;;;;;12.40;3.55;;;;;;;22.79;38.84;93844.69;6177812;23;20182;-89
2024/04/09 09:37:22;;;;;;;21.90;4.63;;;;;;;22.89;38.90;93850.50;6177895;23;20174;-89
2024/04/09 09:39:59;;;;;;;13.90;4.00;;;;;;;22.93;38.83;93869.81;6177143;23;20277;-89
2024/04/09 09:42:26;;;;;;;19.75;4.03;;;;;;;22.86;38.92;93869.47;6176898;23;20158;-89
2024/04/09 09:44:56;;;;;;;14.70;3.42;;;;;;;22.95;38.85;93878.19;6177353;23;20170;-89
2024/04/09 09:47:30;;;;;;;15.98;3.67;;;;;;;23.01;39.11;93890.13;6177519;23;20264;-89
2024/04/09 09:50:00;;;;;;;17.38;4.05;;;;;;;22.95;39.23;93907.06;6177692;23;20197;-89
2024/04/09 09:52:27;;;;;;;15.00;4.15;;;;;;;22.93;39.98;93953.03;6177477;23;20253;-88
2024/04/09 09:54:56;;;;;;;11.00;4.05;;;;;;;22.90;40.33;93970.13;6180474;23;20216;-89
2024/04/09 09:57:25;;;;;;;17.33;3.97;;;;;;;22.89;41.46;93997.50;6178864;23;20182;-90
2024/04/09 09:59:58;;;;;;;11.10;3.53;;;;;;;22.91;40.66;93970.91;6177885;23;20254;-89
2024/04/09 10:02:28;;;;;;;16.95;3.63;;;;;;;23.02;41.04;93986.19;6177510;23;20238;-89
2024/04/09 10:05:12;;;;;;;11.55;3.33;;;;;;;23.16;40.64;93980.91;6177571;23;20201;-89
2024/04/09 10:07:58;;;;;;;14.48;3.80;;;;;;;23.13;40.50;93957.88;6177453;23;20772;-89
2024/04/09 10:10:34;;;;;;;14.27;3.55;;;;;;;23.12;40.83;93993.06;6177124;23;20655;-89
2024/04/09 10:13:07;;;;;;;17.98;3.95;;;;;;;23.09;41.55;94039.06;6177428;23;20217;-88
2024/04/09 10:15:46;;;;;;;14.70;3.35;;;;;;;22.89;41.49;94034.22;6177023;23;20155;-88
2024/04/09 10:18:28;;;;;;;14.38;3.60;;;;;;;23.06;41.39;94049.41;6178190;23;20633;-88
2024/04/09 10:21:00;;;;;;;12.68;3.63;;;;;;;23.11;41.33;94049.28;6177220;23;20202;-89
2024/04/09 10:23:34;;;;;;;16.80;4.22;;;;;;;23.08;42.38;94094.53;6178350;23;20198;-89
2024/04/09 10:26:09;;;;;;;11.00;3.38;;;;;;;23.09;40.72;94028.56;6177827;23;20655;-89
2024/04/09 10:28:35;;;;;;;15.07;3.78;;;;;;;23.07;40.38;94019.44;6178445;23;20209;-87
2024/04/09 10:31:04;;;;;;;10.38;3.53;;;;;;;23.19;40.29;94011.06;6217752;22;20214;-88
2024/04/09 10:33:34;;;;;;;17.92;3.88;;;;;;;23.12;42.98;94121.72;6238590;23;20173;-89
2024/04/09 10:39:13;;;;;;;9.82;3.67;;;;;;;23.33;41.85;94117.66;6232832;23;20212;-89
2024/04/09 10:41:54;;;;;;;11.52;3.50;;;;;;;23.38;40.59;94030.09;6206458;23;20178;-88
2024/04/09 10:44:37;;;;;;;14.40;3.88;;;;;;;23.36;40.10;94019.13;6210034;23;20161;-88
2024/04/09 10:47:09;;;;;;;17.85;4.18;;;;;;;23.47;39.71;93981.06;6211269;23;20162;-88
2024/04/09 10:49:49;;;;;;;16.90;4.20;;;;;;;23.33;39.15;93961.91;6210621;23;20208;-88
2024/04/09 10:52:14;;;;;;;20.98;4.57;;;;;;;23.21;39.19;93951.94;6210452;23;20173;-89
2024/04/09 10:54:45;;;;;;;12.70;3.65;;;;;;;23.18;40.53;94023.41;6207791;23;20185;-89
2024/04/09 10:57:36;;;;;;;16.63;3.72;;;;;;;23.34;39.83;93976.59;6209988;23;20488;-87
2024/04/09 11:11:27;;;;;;;20.33;4.38;;;;;;;23.26;39.19;93961.56;6213929;23;20199;-87
2024/04/09 11:14:40;;;;;;;14.85;4.15;;;;;;;23.58;39.30;93989.53;6136261;23;20251;-87
2024/04/09 11:27:47;;;;;;;19.52;4.13;;;;;;;23.85;39.24;93972.91;6139254;23;20188;-88
2024/04/09 11:30:46;;;;;;;17.17;3.88;;;;;;;23.91;39.00;93971.69;6208816;23;20194;-88
2024/04/09 11:33:50;;;;;;;17.77;4.10;;;;;;;23.85;39.93;94043.88;6208389;23;20227;-88
2024/04/09 11:37:00;;;;;;;18.92;4.40;;;;;;;23.80;40.46;94044.75;6199719;23;20200;-87
2024/04/09 11:39:44;;;;;;;20.75;4.35;;;;;;;23.77;40.43;94056.63;6208603;23;20154;-88
2024/04/09 11:42:21;;;;;;;16.92;4.45;;;;;;;23.72;40.08;94045.44;6209309;23;20158;-88
2024/04/09 11:45:18;;;;;;;15.02;4.68;;;;;;;23.67;39.98;94033.19;6209309;23;20236;-89
2024/04/09 11:47:48;;;;;;;14.80;5.13;;;;;;;23.57;41.21;94054.44;6208711;23;20173;-89
2024/04/09 11:50:27;;;;;;;23.67;5.68;;;;;;;23.57;41.15;94072.03;6208149;23;20680;-88
2024/04/09 11:53:09;;;;;;;20.35;4.85;;;;;;;23.63;40.79;94097.16;6209660;23;20188;-89
2024/04/09 11:55:45;;;;;;;16.23;4.32;;;;;;;23.70;40.75;94089.63;6209438;23;20170;-88
2024/04/09 11:58:16;;;;;;;18.92;5.00;;;;;;;23.80;40.53;94084.19;6209322;23;20196;-88
2024/04/09 12:01:29;;;;;;;;;;;;;;;;;;;;;
2024/04/09 12:04:20;;;;;;;17.42;4.20;;;;;;;23.89;40.89;94085.03;6179884;23;20169;-88